sensor_id;sensor_type;location;lat;lon;timestamp;P1;durP1;ratioP1;P2;durP2;ratioP2
58615;SDS011;44385;51.992;4.206;2023-05-14T00:00:34;27.63;;;18.50;;
58615;SDS011;44385;51.992;4.206;2023-05-14T00:03:02;28.13;;;18.77;;
58615;SDS011;44385;51.992;4.206;2023-05-14T00:05:28;26.40;;;18.55;;
58615;SDS011;44385;51.992;4.206;2023-05-14T00:07:55;28.88;;;18.67;;
58615;SDS011;44385;51.992;4.206;2023-05-14T00:10:21;29.40;;;18.48;;
58615;SDS011;44385;51.992;4.206;2023-05-14T00:12:49;34.03;;;21.25;;
58615;SDS011;44385;51.992;4.206;2023-05-14T00:15:16;29.77;;;20.30;;
58615;SDS011;44385;51.992;4.206;2023-05-14T00:17:42;33.72;;;21.52;;
58615;SDS011;44385;51.992;4.206;2023-05-14T00:20:10;28.10;;;19.40;;
58615;SDS011;44385;51.992;4.206;2023-05-14T00:22:38;24.95;;;19.20;;
58615;SDS011;44385;51.992;4.206;2023-05-14T00:25:06;25.15;;;18.73;;
58615;SDS011;44385;51.992;4.206;2023-05-14T00:27:33;25.00;;;18.73;;
58615;SDS011;44385;51.992;4.206;2023-05-14T00:30:00;28.45;;;18.38;;
58615;SDS011;44385;51.992;4.206;2023-05-14T00:32:27;28.92;;;19.75;;
58615;SDS011;44385;51.992;4.206;2023-05-14T00:34:53;26.02;;;18.23;;
58615;SDS011;44385;51.992;4.206;2023-05-14T00:37:21;23.70;;;17.80;;
58615;SDS011;44385;51.992;4.206;2023-05-14T00:39:48;28.65;;;17.15;;
58615;SDS011;44385;51.992;4.206;2023-05-14T00:42:15;22.88;;;15.73;;
58615;SDS011;44385;51.992;4.206;2023-05-14T00:44:41;28.50;;;17.13;;
58615;SDS011;44385;51.992;4.206;2023-05-14T00:47:08;28.40;;;17.40;;
58615;SDS011;44385;51.992;4.206;2023-05-14T00:49:34;25.38;;;17.27;;
58615;SDS011;44385;51.992;4.206;2023-05-14T00:52:01;23.67;;;16.50;;
58615;SDS011;44385;51.992;4.206;2023-05-14T00:54:29;27.77;;;16.80;;
58615;SDS011;44385;51.992;4.206;2023-05-14T00:56:55;19.25;;;15.07;;
58615;SDS011;44385;51.992;4.206;2023-05-14T00:59:22;25.08;;;17.25;;
58615;SDS011;44385;51.992;4.206;2023-05-14T01:01:48;28.15;;;17.25;;
58615;SDS011;44385;51.992;4.206;2023-05-14T01:04:16;24.92;;;15.25;;
58615;SDS011;44385;51.992;4.206;2023-05-14T01:06:44;23.98;;;15.77;;
58615;SDS011;44385;51.992;4.206;2023-05-14T01:09:16;23.58;;;15.02;;
58615;SDS011;44385;51.992;4.206;2023-05-14T01:11:46;25.13;;;14.93;;
58615;SDS011;44385;51.992;4.206;2023-05-14T01:14:19;23.88;;;15.27;;
58615;SDS011;44385;51.992;4.206;2023-05-14T01:16:46;25.55;;;15.00;;
58615;SDS011;44385;51.992;4.206;2023-05-14T01:19:19;29.02;;;15.50;;
58615;SDS011;44385;51.992;4.206;2023-05-14T01:21:47;24.95;;;15.20;;
58615;SDS011;44385;51.992;4.206;2023-05-14T01:24:15;23.27;;;14.83;;
58615;SDS011;44385;51.992;4.206;2023-05-14T01:26:41;25.88;;;17.90;;
58615;SDS011;44385;51.992;4.206;2023-05-14T01:29:10;28.42;;;16.63;;
58615;SDS011;44385;51.992;4.206;2023-05-14T01:31:39;24.42;;;16.67;;
58615;SDS011;44385;51.992;4.206;2023-05-14T01:34:07;25.45;;;16.40;;
58615;SDS011;44385;51.992;4.206;2023-05-14T01:36:34;29.65;;;16.23;;
58615;SDS011;44385;51.992;4.206;2023-05-14T01:39:02;24.30;;;15.73;;
58615;SDS011;44385;51.992;4.206;2023-05-14T01:41:29;19.65;;;15.18;;
58615;SDS011;44385;51.992;4.206;2023-05-14T01:43:56;21.40;;;15.75;;
58615;SDS011;44385;51.992;4.206;2023-05-14T01:46:22;24.05;;;15.93;;
58615;SDS011;44385;51.992;4.206;2023-05-14T01:48:49;30.00;;;15.88;;
58615;SDS011;44385;51.992;4.206;2023-05-14T01:51:16;21.00;;;14.75;;
58615;SDS011;44385;51.992;4.206;2023-05-14T01:53:42;20.17;;;14.80;;
58615;SDS011;44385;51.992;4.206;2023-05-14T01:56:10;20.77;;;15.00;;
58615;SDS011;44385;51.992;4.206;2023-05-14T01:58:37;25.20;;;15.00;;
58615;SDS011;44385;51.992;4.206;2023-05-14T02:01:03;22.95;;;15.48;;
58615;SDS011;44385;51.992;4.206;2023-05-14T02:03:30;21.80;;;15.68;;
58615;SDS011;44385;51.992;4.206;2023-05-14T02:05:56;23.70;;;13.75;;
58615;SDS011;44385;51.992;4.206;2023-05-14T02:08:23;22.05;;;13.80;;
58615;SDS011;44385;51.992;4.206;2023-05-14T02:10:50;22.65;;;13.32;;
58615;SDS011;44385;51.992;4.206;2023-05-14T02:13:17;21.58;;;13.90;;
58615;SDS011;44385;51.992;4.206;2023-05-14T02:15:44;20.02;;;15.05;;
58615;SDS011;44385;51.992;4.206;2023-05-14T02:18:10;22.48;;;13.60;;
58615;SDS011;44385;51.992;4.206;2023-05-14T02:20:38;24.67;;;14.57;;
58615;SDS011;44385;51.992;4.206;2023-05-14T02:23:04;21.73;;;14.27;;
58615;SDS011;44385;51.992;4.206;2023-05-14T02:25:31;22.70;;;14.43;;
58615;SDS011;44385;51.992;4.206;2023-05-14T02:27:57;18.80;;;12.32;;
58615;SDS011;44385;51.992;4.206;2023-05-14T02:30:25;24.05;;;13.43;;
58615;SDS011;44385;51.992;4.206;2023-05-14T02:32:51;23.58;;;13.68;;
58615;SDS011;44385;51.992;4.206;2023-05-14T02:35:18;29.45;;;15.85;;
58615;SDS011;44385;51.992;4.206;2023-05-14T02:37:44;29.95;;;14.77;;
58615;SDS011;44385;51.992;4.206;2023-05-14T02:40:11;28.08;;;15.05;;
58615;SDS011;44385;51.992;4.206;2023-05-14T02:42:38;25.02;;;15.18;;
58615;SDS011;44385;51.992;4.206;2023-05-14T02:45:05;29.90;;;14.77;;
58615;SDS011;44385;51.992;4.206;2023-05-14T02:47:33;27.20;;;15.18;;
58615;SDS011;44385;51.992;4.206;2023-05-14T02:49:59;29.58;;;15.75;;
58615;SDS011;44385;51.992;4.206;2023-05-14T02:52:26;26.98;;;16.42;;
58615;SDS011;44385;51.992;4.206;2023-05-14T02:54:53;25.80;;;15.18;;
58615;SDS011;44385;51.992;4.206;2023-05-14T02:57:19;21.70;;;15.25;;
58615;SDS011;44385;51.992;4.206;2023-05-14T02:59:46;28.50;;;15.48;;
58615;SDS011;44385;51.992;4.206;2023-05-14T03:02:13;25.17;;;15.63;;
58615;SDS011;44385;51.992;4.206;2023-05-14T03:04:40;26.45;;;16.00;;
58615;SDS011;44385;51.992;4.206;2023-05-14T03:07:07;21.08;;;14.50;;
58615;SDS011;44385;51.992;4.206;2023-05-14T03:09:33;32.60;;;17.48;;
58615;SDS011;44385;51.992;4.206;2023-05-14T03:12:00;21.25;;;16.63;;
58615;SDS011;44385;51.992;4.206;2023-05-14T03:14:26;25.95;;;15.93;;
58615;SDS011;44385;51.992;4.206;2023-05-14T03:16:53;24.67;;;16.52;;
58615;SDS011;44385;51.992;4.206;2023-05-14T03:19:20;27.58;;;16.25;;
58615;SDS011;44385;51.992;4.206;2023-05-14T03:21:49;23.10;;;15.55;;
58615;SDS011;44385;51.992;4.206;2023-05-14T03:24:15;24.95;;;15.20;;
58615;SDS011;44385;51.992;4.206;2023-05-14T03:26:42;22.38;;;14.68;;
58615;SDS011;44385;51.992;4.206;2023-05-14T03:29:08;22.30;;;15.05;;
58615;SDS011;44385;51.992;4.206;2023-05-14T03:31:35;23.08;;;15.40;;
58615;SDS011;44385;51.992;4.206;2023-05-14T03:34:01;23.38;;;14.48;;
58615;SDS011;44385;51.992;4.206;2023-05-14T03:36:28;30.20;;;16.15;;
58615;SDS011;44385;51.992;4.206;2023-05-14T03:38:55;24.08;;;15.52;;
58615;SDS011;44385;51.992;4.206;2023-05-14T03:41:22;25.60;;;15.43;;
58615;SDS011;44385;51.992;4.206;2023-05-14T03:43:49;23.95;;;15.82;;
58615;SDS011;44385;51.992;4.206;2023-05-14T03:46:15;22.13;;;14.95;;
58615;SDS011;44385;51.992;4.206;2023-05-14T03:48:42;28.20;;;17.27;;
58615;SDS011;44385;51.992;4.206;2023-05-14T03:51:08;28.83;;;17.27;;
58615;SDS011;44385;51.992;4.206;2023-05-14T03:53:34;25.40;;;15.90;;
58615;SDS011;44385;51.992;4.206;2023-05-14T03:56:02;27.77;;;16.63;;
58615;SDS011;44385;51.992;4.206;2023-05-14T03:58:29;26.27;;;15.75;;
58615;SDS011;44385;51.992;4.206;2023-05-14T04:00:55;29.17;;;18.05;;
58615;SDS011;44385;51.992;4.206;2023-05-14T04:03:22;25.88;;;16.75;;
58615;SDS011;44385;51.992;4.206;2023-05-14T04:05:49;24.50;;;17.50;;
58615;SDS011;44385;51.992;4.206;2023-05-14T04:08:15;28.55;;;17.25;;
58615;SDS011;44385;51.992;4.206;2023-05-14T04:10:42;29.77;;;18.35;;
58615;SDS011;44385;51.992;4.206;2023-05-14T04:13:10;35.22;;;20.80;;
58615;SDS011;44385;51.992;4.206;2023-05-14T04:15:38;29.50;;;20.80;;
58615;SDS011;44385;51.992;4.206;2023-05-14T04:18:04;29.42;;;19.27;;
58615;SDS011;44385;51.992;4.206;2023-05-14T04:20:30;30.40;;;18.83;;
58615;SDS011;44385;51.992;4.206;2023-05-14T04:22:57;31.73;;;20.15;;
58615;SDS011;44385;51.992;4.206;2023-05-14T04:25:23;30.40;;;21.13;;
58615;SDS011;44385;51.992;4.206;2023-05-14T04:27:54;27.25;;;20.15;;
58615;SDS011;44385;51.992;4.206;2023-05-14T04:30:22;27.52;;;20.52;;
58615;SDS011;44385;51.992;4.206;2023-05-14T04:32:49;30.25;;;20.67;;
58615;SDS011;44385;51.992;4.206;2023-05-14T04:35:16;29.17;;;19.55;;
58615;SDS011;44385;51.992;4.206;2023-05-14T04:37:42;31.50;;;21.42;;
58615;SDS011;44385;51.992;4.206;2023-05-14T04:40:08;26.48;;;21.65;;
58615;SDS011;44385;51.992;4.206;2023-05-14T04:42:37;30.00;;;21.95;;
58615;SDS011;44385;51.992;4.206;2023-05-14T04:45:04;29.23;;;20.70;;
58615;SDS011;44385;51.992;4.206;2023-05-14T04:47:32;26.70;;;19.83;;
58615;SDS011;44385;51.992;4.206;2023-05-14T04:49:58;31.90;;;20.00;;
58615;SDS011;44385;51.992;4.206;2023-05-14T04:52:26;31.35;;;20.35;;
58615;SDS011;44385;51.992;4.206;2023-05-14T04:54:53;26.95;;;19.75;;
58615;SDS011;44385;51.992;4.206;2023-05-14T04:57:20;29.67;;;19.88;;
58615;SDS011;44385;51.992;4.206;2023-05-14T04:59:47;27.90;;;19.13;;
58615;SDS011;44385;51.992;4.206;2023-05-14T05:02:14;28.77;;;21.20;;
58615;SDS011;44385;51.992;4.206;2023-05-14T05:04:42;29.92;;;21.90;;
58615;SDS011;44385;51.992;4.206;2023-05-14T05:07:08;34.58;;;23.13;;
58615;SDS011;44385;51.992;4.206;2023-05-14T05:09:35;30.50;;;22.17;;
58615;SDS011;44385;51.992;4.206;2023-05-14T05:12:01;27.05;;;21.83;;
58615;SDS011;44385;51.992;4.206;2023-05-14T05:14:28;28.27;;;20.15;;
58615;SDS011;44385;51.992;4.206;2023-05-14T05:16:55;30.63;;;21.17;;
58615;SDS011;44385;51.992;4.206;2023-05-14T05:19:21;28.70;;;22.13;;
58615;SDS011;44385;51.992;4.206;2023-05-14T05:21:50;28.45;;;21.75;;
58615;SDS011;44385;51.992;4.206;2023-05-14T05:24:16;28.33;;;22.43;;
58615;SDS011;44385;51.992;4.206;2023-05-14T05:26:43;26.73;;;20.25;;
58615;SDS011;44385;51.992;4.206;2023-05-14T05:29:09;28.83;;;19.95;;
58615;SDS011;44385;51.992;4.206;2023-05-14T05:31:36;27.73;;;20.45;;
58615;SDS011;44385;51.992;4.206;2023-05-14T05:34:02;25.70;;;21.23;;
58615;SDS011;44385;51.992;4.206;2023-05-14T05:36:29;29.10;;;21.70;;
58615;SDS011;44385;51.992;4.206;2023-05-14T05:38:57;30.35;;;21.02;;
58615;SDS011;44385;51.992;4.206;2023-05-14T05:41:25;27.05;;;20.63;;
58615;SDS011;44385;51.992;4.206;2023-05-14T05:43:52;25.70;;;20.80;;
58615;SDS011;44385;51.992;4.206;2023-05-14T05:46:18;23.95;;;19.90;;
58615;SDS011;44385;51.992;4.206;2023-05-14T05:48:44;25.02;;;18.85;;
58615;SDS011;44385;51.992;4.206;2023-05-14T05:51:12;26.55;;;18.40;;
58615;SDS011;44385;51.992;4.206;2023-05-14T05:53:39;21.38;;;18.95;;
58615;SDS011;44385;51.992;4.206;2023-05-14T05:56:07;21.60;;;17.65;;
58615;SDS011;44385;51.992;4.206;2023-05-14T05:58:33;21.17;;;18.52;;
58615;SDS011;44385;51.992;4.206;2023-05-14T06:01:00;23.80;;;18.92;;
58615;SDS011;44385;51.992;4.206;2023-05-14T06:03:26;22.42;;;18.63;;
58615;SDS011;44385;51.992;4.206;2023-05-14T06:05:52;21.60;;;17.23;;
58615;SDS011;44385;51.992;4.206;2023-05-14T06:08:19;22.23;;;17.70;;
58615;SDS011;44385;51.992;4.206;2023-05-14T06:10:45;26.27;;;19.35;;
58615;SDS011;44385;51.992;4.206;2023-05-14T06:13:13;23.63;;;18.77;;
58615;SDS011;44385;51.992;4.206;2023-05-14T06:15:39;20.60;;;16.50;;
58615;SDS011;44385;51.992;4.206;2023-05-14T06:18:06;23.33;;;17.85;;
58615;SDS011;44385;51.992;4.206;2023-05-14T06:20:32;19.17;;;16.95;;
58615;SDS011;44385;51.992;4.206;2023-05-14T06:22:59;20.92;;;18.00;;
58615;SDS011;44385;51.992;4.206;2023-05-14T06:25:26;24.23;;;18.15;;
58615;SDS011;44385;51.992;4.206;2023-05-14T06:27:53;24.38;;;17.70;;
58615;SDS011;44385;51.992;4.206;2023-05-14T06:30:21;19.55;;;16.75;;
58615;SDS011;44385;51.992;4.206;2023-05-14T06:32:47;21.20;;;17.65;;
58615;SDS011;44385;51.992;4.206;2023-05-14T06:35:14;21.00;;;17.10;;
58615;SDS011;44385;51.992;4.206;2023-05-14T06:37:41;24.05;;;16.67;;
58615;SDS011;44385;51.992;4.206;2023-05-14T06:40:07;25.30;;;16.77;;
58615;SDS011;44385;51.992;4.206;2023-05-14T06:42:34;22.02;;;16.67;;
58615;SDS011;44385;51.992;4.206;2023-05-14T06:45:01;20.08;;;16.13;;
58615;SDS011;44385;51.992;4.206;2023-05-14T06:47:28;21.60;;;14.98;;
58615;SDS011;44385;51.992;4.206;2023-05-14T06:49:55;21.58;;;16.02;;
58615;SDS011;44385;51.992;4.206;2023-05-14T06:52:22;20.55;;;14.23;;
58615;SDS011;44385;51.992;4.206;2023-05-14T06:54:49;20.58;;;15.48;;
58615;SDS011;44385;51.992;4.206;2023-05-14T06:57:15;19.13;;;14.95;;
58615;SDS011;44385;51.992;4.206;2023-05-14T06:59:42;23.67;;;13.65;;
58615;SDS011;44385;51.992;4.206;2023-05-14T07:02:08;19.27;;;13.82;;
58615;SDS011;44385;51.992;4.206;2023-05-14T07:04:36;20.58;;;13.13;;
58615;SDS011;44385;51.992;4.206;2023-05-14T07:07:03;15.68;;;12.80;;
58615;SDS011;44385;51.992;4.206;2023-05-14T07:09:29;17.50;;;12.15;;
58615;SDS011;44385;51.992;4.206;2023-05-14T07:11:56;15.85;;;12.50;;
58615;SDS011;44385;51.992;4.206;2023-05-14T07:14:22;17.23;;;12.85;;
58615;SDS011;44385;51.992;4.206;2023-05-14T07:16:49;16.08;;;12.32;;
58615;SDS011;44385;51.992;4.206;2023-05-14T07:19:16;18.48;;;11.45;;
58615;SDS011;44385;51.992;4.206;2023-05-14T07:21:43;23.30;;;12.52;;
58615;SDS011;44385;51.992;4.206;2023-05-14T07:24:10;19.50;;;12.80;;
58615;SDS011;44385;51.992;4.206;2023-05-14T07:26:39;17.98;;;11.55;;
58615;SDS011;44385;51.992;4.206;2023-05-14T07:29:05;17.52;;;11.93;;
58615;SDS011;44385;51.992;4.206;2023-05-14T07:31:32;21.40;;;12.18;;
58615;SDS011;44385;51.992;4.206;2023-05-14T07:33:58;14.65;;;11.27;;
58615;SDS011;44385;51.992;4.206;2023-05-14T07:36:25;16.17;;;11.43;;
58615;SDS011;44385;51.992;4.206;2023-05-14T07:38:54;12.68;;;10.43;;
58615;SDS011;44385;51.992;4.206;2023-05-14T07:41:20;15.98;;;11.63;;
58615;SDS011;44385;51.992;4.206;2023-05-14T07:43:47;16.10;;;10.68;;
58615;SDS011;44385;51.992;4.206;2023-05-14T07:46:13;14.18;;;11.18;;
58615;SDS011;44385;51.992;4.206;2023-05-14T07:48:40;14.73;;;10.70;;
58615;SDS011;44385;51.992;4.206;2023-05-14T07:51:06;18.25;;;11.20;;
58615;SDS011;44385;51.992;4.206;2023-05-14T07:53:33;14.45;;;10.93;;
58615;SDS011;44385;51.992;4.206;2023-05-14T07:56:01;15.85;;;11.77;;
58615;SDS011;44385;51.992;4.206;2023-05-14T07:58:27;15.70;;;10.50;;
58615;SDS011;44385;51.992;4.206;2023-05-14T08:00:54;12.45;;;9.55;;
58615;SDS011;44385;51.992;4.206;2023-05-14T08:03:21;14.23;;;11.07;;
58615;SDS011;44385;51.992;4.206;2023-05-14T08:05:49;20.75;;;11.38;;
58615;SDS011;44385;51.992;4.206;2023-05-14T08:08:16;12.82;;;10.45;;
58615;SDS011;44385;51.992;4.206;2023-05-14T08:10:42;13.45;;;9.90;;
58615;SDS011;44385;51.992;4.206;2023-05-14T08:13:10;12.38;;;9.32;;
58615;SDS011;44385;51.992;4.206;2023-05-14T08:15:37;15.30;;;9.88;;
58615;SDS011;44385;51.992;4.206;2023-05-14T08:18:04;14.88;;;9.45;;
58615;SDS011;44385;51.992;4.206;2023-05-14T08:20:30;12.85;;;9.18;;
58615;SDS011;44385;51.992;4.206;2023-05-14T08:22:57;17.98;;;9.48;;
58615;SDS011;44385;51.992;4.206;2023-05-14T08:25:23;18.98;;;11.10;;
58615;SDS011;44385;51.992;4.206;2023-05-14T08:27:53;10.45;;;8.73;;
58615;SDS011;44385;51.992;4.206;2023-05-14T08:30:21;14.93;;;8.68;;
58615;SDS011;44385;51.992;4.206;2023-05-14T08:32:47;13.88;;;7.78;;
58615;SDS011;44385;51.992;4.206;2023-05-14T08:35:16;11.48;;;7.93;;
58615;SDS011;44385;51.992;4.206;2023-05-14T08:37:43;13.98;;;8.48;;
58615;SDS011;44385;51.992;4.206;2023-05-14T08:40:10;13.52;;;8.60;;
58615;SDS011;44385;51.992;4.206;2023-05-14T08:42:37;10.82;;;7.95;;
58615;SDS011;44385;51.992;4.206;2023-05-14T08:45:06;12.10;;;8.75;;
58615;SDS011;44385;51.992;4.206;2023-05-14T08:47:37;11.07;;;8.52;;
58615;SDS011;44385;51.992;4.206;2023-05-14T08:50:04;13.02;;;7.97;;
58615;SDS011;44385;51.992;4.206;2023-05-14T08:52:31;12.98;;;7.82;;
58615;SDS011;44385;51.992;4.206;2023-05-14T08:54:59;12.45;;;7.90;;
58615;SDS011;44385;51.992;4.206;2023-05-14T08:57:26;13.60;;;7.78;;
58615;SDS011;44385;51.992;4.206;2023-05-14T08:59:53;11.18;;;7.32;;
58615;SDS011;44385;51.992;4.206;2023-05-14T09:02:21;11.27;;;7.80;;
58615;SDS011;44385;51.992;4.206;2023-05-14T09:04:50;13.30;;;8.63;;
58615;SDS011;44385;51.992;4.206;2023-05-14T09:07:19;17.05;;;7.70;;
58615;SDS011;44385;51.992;4.206;2023-05-14T09:09:46;12.88;;;7.43;;
58615;SDS011;44385;51.992;4.206;2023-05-14T09:12:12;12.15;;;7.15;;
58615;SDS011;44385;51.992;4.206;2023-05-14T09:14:39;12.27;;;7.43;;
58615;SDS011;44385;51.992;4.206;2023-05-14T09:17:05;12.10;;;7.18;;
58615;SDS011;44385;51.992;4.206;2023-05-14T09:19:32;8.93;;;7.07;;
58615;SDS011;44385;51.992;4.206;2023-05-14T09:22:00;11.95;;;7.35;;
58615;SDS011;44385;51.992;4.206;2023-05-14T09:24:27;10.35;;;6.75;;
58615;SDS011;44385;51.992;4.206;2023-05-14T09:26:56;13.40;;;6.85;;
58615;SDS011;44385;51.992;4.206;2023-05-14T09:29:23;12.20;;;6.63;;
58615;SDS011;44385;51.992;4.206;2023-05-14T09:31:50;11.18;;;7.00;;
58615;SDS011;44385;51.992;4.206;2023-05-14T09:34:22;14.90;;;7.15;;
58615;SDS011;44385;51.992;4.206;2023-05-14T09:36:48;8.73;;;6.05;;
58615;SDS011;44385;51.992;4.206;2023-05-14T09:39:17;10.68;;;6.40;;
58615;SDS011;44385;51.992;4.206;2023-05-14T09:41:44;9.48;;;5.90;;
58615;SDS011;44385;51.992;4.206;2023-05-14T09:44:10;10.75;;;6.07;;
58615;SDS011;44385;51.992;4.206;2023-05-14T09:46:37;11.40;;;5.57;;
58615;SDS011;44385;51.992;4.206;2023-05-14T09:49:03;10.40;;;5.25;;
58615;SDS011;44385;51.992;4.206;2023-05-14T09:51:30;7.78;;;5.53;;
58615;SDS011;44385;51.992;4.206;2023-05-14T09:53:56;8.70;;;4.47;;
58615;SDS011;44385;51.992;4.206;2023-05-14T09:56:27;10.15;;;5.10;;
58615;SDS011;44385;51.992;4.206;2023-05-14T09:58:53;9.93;;;5.18;;
58615;SDS011;44385;51.992;4.206;2023-05-14T10:01:20;9.85;;;5.57;;
58615;SDS011;44385;51.992;4.206;2023-05-14T10:03:48;10.27;;;4.93;;
58615;SDS011;44385;51.992;4.206;2023-05-14T10:06:18;9.80;;;5.15;;
58615;SDS011;44385;51.992;4.206;2023-05-14T10:08:47;10.93;;;5.00;;
58615;SDS011;44385;51.992;4.206;2023-05-14T10:11:18;6.63;;;4.78;;
58615;SDS011;44385;51.992;4.206;2023-05-14T10:13:51;8.88;;;5.40;;
58615;SDS011;44385;51.992;4.206;2023-05-14T10:16:20;7.25;;;4.68;;
58615;SDS011;44385;51.992;4.206;2023-05-14T10:18:49;7.53;;;4.70;;
58615;SDS011;44385;51.992;4.206;2023-05-14T10:21:19;8.80;;;4.43;;
58615;SDS011;44385;51.992;4.206;2023-05-14T10:23:46;10.48;;;5.00;;
58615;SDS011;44385;51.992;4.206;2023-05-14T10:26:13;7.82;;;5.03;;
58615;SDS011;44385;51.992;4.206;2023-05-14T10:28:40;7.72;;;4.88;;
58615;SDS011;44385;51.992;4.206;2023-05-14T10:31:09;9.80;;;5.00;;
58615;SDS011;44385;51.992;4.206;2023-05-14T10:33:45;9.38;;;4.85;;
58615;SDS011;44385;51.992;4.206;2023-05-14T10:36:14;7.63;;;4.82;;
58615;SDS011;44385;51.992;4.206;2023-05-14T10:38:41;7.28;;;5.15;;
58615;SDS011;44385;51.992;4.206;2023-05-14T10:41:09;12.65;;;5.53;;
58615;SDS011;44385;51.992;4.206;2023-05-14T10:43:36;12.43;;;5.13;;
58615;SDS011;44385;51.992;4.206;2023-05-14T10:46:03;10.60;;;5.60;;
58615;SDS011;44385;51.992;4.206;2023-05-14T10:48:31;10.20;;;5.13;;
58615;SDS011;44385;51.992;4.206;2023-05-14T10:50:58;10.38;;;5.47;;
58615;SDS011;44385;51.992;4.206;2023-05-14T10:53:31;9.10;;;4.78;;
58615;SDS011;44385;51.992;4.206;2023-05-14T10:56:00;6.68;;;4.35;;
58615;SDS011;44385;51.992;4.206;2023-05-14T10:58:29;7.38;;;5.30;;
58615;SDS011;44385;51.992;4.206;2023-05-14T11:00:56;8.70;;;4.97;;
58615;SDS011;44385;51.992;4.206;2023-05-14T11:03:22;11.30;;;6.03;;
58615;SDS011;44385;51.992;4.206;2023-05-14T11:05:50;11.80;;;5.38;;
58615;SDS011;44385;51.992;4.206;2023-05-14T11:08:17;15.70;;;6.70;;
58615;SDS011;44385;51.992;4.206;2023-05-14T11:10:44;7.93;;;5.55;;
58615;SDS011;44385;51.992;4.206;2023-05-14T11:13:14;14.25;;;5.80;;
58615;SDS011;44385;51.992;4.206;2023-05-14T11:15:42;10.45;;;6.60;;
58615;SDS011;44385;51.992;4.206;2023-05-14T11:18:12;13.75;;;5.72;;
58615;SDS011;44385;51.992;4.206;2023-05-14T11:20:39;10.43;;;6.22;;
58615;SDS011;44385;51.992;4.206;2023-05-14T11:23:07;10.82;;;5.65;;
58615;SDS011;44385;51.992;4.206;2023-05-14T11:25:33;9.77;;;5.68;;
58615;SDS011;44385;51.992;4.206;2023-05-14T11:28:00;8.48;;;5.78;;
58615;SDS011;44385;51.992;4.206;2023-05-14T11:30:26;7.90;;;5.47;;
58615;SDS011;44385;51.992;4.206;2023-05-14T11:32:53;11.80;;;5.63;;
58615;SDS011;44385;51.992;4.206;2023-05-14T11:35:20;7.50;;;5.93;;
58615;SDS011;44385;51.992;4.206;2023-05-14T11:37:48;9.13;;;5.03;;
58615;SDS011;44385;51.992;4.206;2023-05-14T11:40:16;6.80;;;5.07;;
58615;SDS011;44385;51.992;4.206;2023-05-14T11:42:43;10.93;;;5.60;;
58615;SDS011;44385;51.992;4.206;2023-05-14T11:45:10;10.80;;;5.28;;
58615;SDS011;44385;51.992;4.206;2023-05-14T11:47:37;8.20;;;4.90;;
58615;SDS011;44385;51.992;4.206;2023-05-14T11:50:03;9.20;;;5.35;;
58615;SDS011;44385;51.992;4.206;2023-05-14T11:52:30;8.75;;;5.35;;
58615;SDS011;44385;51.992;4.206;2023-05-14T11:54:56;7.00;;;5.15;;
58615;SDS011;44385;51.992;4.206;2023-05-14T11:57:27;9.60;;;5.18;;
58615;SDS011;44385;51.992;4.206;2023-05-14T11:59:56;10.10;;;5.75;;
58615;SDS011;44385;51.992;4.206;2023-05-14T12:02:22;9.30;;;5.57;;
58615;SDS011;44385;51.992;4.206;2023-05-14T12:04:53;8.48;;;5.28;;
58615;SDS011;44385;51.992;4.206;2023-05-14T12:07:19;11.18;;;5.53;;
58615;SDS011;44385;51.992;4.206;2023-05-14T12:09:46;8.80;;;5.60;;
58615;SDS011;44385;51.992;4.206;2023-05-14T12:12:13;9.15;;;5.78;;
58615;SDS011;44385;51.992;4.206;2023-05-14T12:14:42;12.23;;;6.43;;
58615;SDS011;44385;51.992;4.206;2023-05-14T12:17:13;8.25;;;5.55;;
58615;SDS011;44385;51.992;4.206;2023-05-14T12:19:40;10.82;;;6.05;;
58615;SDS011;44385;51.992;4.206;2023-05-14T12:22:07;8.25;;;5.95;;
58615;SDS011;44385;51.992;4.206;2023-05-14T12:24:33;10.05;;;5.93;;
58615;SDS011;44385;51.992;4.206;2023-05-14T12:27:00;8.38;;;5.60;;
58615;SDS011;44385;51.992;4.206;2023-05-14T12:29:27;9.18;;;5.78;;
58615;SDS011;44385;51.992;4.206;2023-05-14T12:31:56;6.72;;;5.32;;
58615;SDS011;44385;51.992;4.206;2023-05-14T12:34:22;10.85;;;5.55;;
58615;SDS011;44385;51.992;4.206;2023-05-14T12:36:49;9.90;;;6.10;;
58615;SDS011;44385;51.992;4.206;2023-05-14T12:39:16;11.10;;;5.90;;
58615;SDS011;44385;51.992;4.206;2023-05-14T12:41:42;8.60;;;5.47;;
58615;SDS011;44385;51.992;4.206;2023-05-14T12:44:09;8.18;;;5.20;;
58615;SDS011;44385;51.992;4.206;2023-05-14T12:46:36;9.57;;;5.20;;
58615;SDS011;44385;51.992;4.206;2023-05-14T12:49:04;8.68;;;5.43;;
58615;SDS011;44385;51.992;4.206;2023-05-14T12:51:30;9.63;;;5.33;;
58615;SDS011;44385;51.992;4.206;2023-05-14T12:53:57;8.80;;;6.18;;
58615;SDS011;44385;51.992;4.206;2023-05-14T12:56:23;12.73;;;5.93;;
58615;SDS011;44385;51.992;4.206;2023-05-14T12:58:53;8.48;;;5.20;;
58615;SDS011;44385;51.992;4.206;2023-05-14T13:01:19;6.70;;;5.55;;
58615;SDS011;44385;51.992;4.206;2023-05-14T13:03:46;7.82;;;5.15;;
58615;SDS011;44385;51.992;4.206;2023-05-14T13:06:14;7.78;;;5.28;;
58615;SDS011;44385;51.992;4.206;2023-05-14T13:08:40;6.10;;;4.77;;
58615;SDS011;44385;51.992;4.206;2023-05-14T13:11:07;10.40;;;5.18;;
58615;SDS011;44385;51.992;4.206;2023-05-14T13:13:33;6.60;;;5.00;;
58615;SDS011;44385;51.992;4.206;2023-05-14T13:15:59;10.55;;;4.70;;
58615;SDS011;44385;51.992;4.206;2023-05-14T13:18:26;9.30;;;5.03;;
58615;SDS011;44385;51.992;4.206;2023-05-14T13:20:52;8.15;;;4.55;;
58615;SDS011;44385;51.992;4.206;2023-05-14T13:23:20;8.05;;;5.05;;
58615;SDS011;44385;51.992;4.206;2023-05-14T13:25:47;9.80;;;5.40;;
58615;SDS011;44385;51.992;4.206;2023-05-14T13:28:13;9.10;;;5.25;;
58615;SDS011;44385;51.992;4.206;2023-05-14T13:30:40;8.48;;;4.95;;
58615;SDS011;44385;51.992;4.206;2023-05-14T13:33:06;8.43;;;4.93;;
58615;SDS011;44385;51.992;4.206;2023-05-14T13:35:33;12.23;;;4.97;;
58615;SDS011;44385;51.992;4.206;2023-05-14T13:37:59;11.70;;;6.03;;
58615;SDS011;44385;51.992;4.206;2023-05-14T13:40:27;10.00;;;5.15;;
58615;SDS011;44385;51.992;4.206;2023-05-14T13:42:53;8.63;;;5.00;;
58615;SDS011;44385;51.992;4.206;2023-05-14T13:45:20;13.40;;;5.25;;
58615;SDS011;44385;51.992;4.206;2023-05-14T13:47:46;8.85;;;5.85;;
58615;SDS011;44385;51.992;4.206;2023-05-14T13:50:12;8.65;;;4.65;;
58615;SDS011;44385;51.992;4.206;2023-05-14T13:52:39;7.40;;;4.53;;
58615;SDS011;44385;51.992;4.206;2023-05-14T13:55:06;7.15;;;4.30;;
58615;SDS011;44385;51.992;4.206;2023-05-14T13:57:34;7.40;;;4.30;;
58615;SDS011;44385;51.992;4.206;2023-05-14T14:00:01;9.93;;;4.80;;
58615;SDS011;44385;51.992;4.206;2023-05-14T14:02:29;9.90;;;4.57;;
58615;SDS011;44385;51.992;4.206;2023-05-14T14:04:55;7.18;;;4.47;;
58615;SDS011;44385;51.992;4.206;2023-05-14T14:07:21;7.47;;;4.35;;
58615;SDS011;44385;51.992;4.206;2023-05-14T14:09:50;7.15;;;4.80;;
58615;SDS011;44385;51.992;4.206;2023-05-14T14:12:16;10.13;;;4.97;;
58615;SDS011;44385;51.992;4.206;2023-05-14T14:14:44;7.68;;;5.07;;
58615;SDS011;44385;51.992;4.206;2023-05-14T14:17:11;7.80;;;5.35;;
58615;SDS011;44385;51.992;4.206;2023-05-14T14:19:38;7.60;;;5.30;;
58615;SDS011;44385;51.992;4.206;2023-05-14T14:22:04;7.63;;;4.80;;
58615;SDS011;44385;51.992;4.206;2023-05-14T14:24:31;7.45;;;4.82;;
58615;SDS011;44385;51.992;4.206;2023-05-14T14:26:57;8.77;;;5.85;;
58615;SDS011;44385;51.992;4.206;2023-05-14T14:29:24;6.15;;;5.40;;